Terminal Aerodrome Forecast
Issued by NWS

Home | Current Version | Previous Version | Text Only | Print | Product List | Glossary On
Versions: 1 2 3 4 5 6 7 8 9 10 11 12 13 14 15 16 17
000
FTUS44 KEPZ 281700
TAFDMN
TAF
KDMN 281734Z 2818/2918 08012G22KT P6SM SCT060
     FM290100 07007KT P6SM FEW100 SCT200
     FM291600 13007KT P6SM FEW050 FEW200=

USA.gov is the U.S. government's official web portal to all federal, state and local government web resources and services.